Time;durP1;ratioP1;P1;durP2;ratioP2;P2;SDS_P1;SDS_P2;PMS_P1;PMS_P2;Temp;Humidity;BMP_temperature;BMP_pressure;BME280_temperature;BME280_humidity;BME280_pressure;Samples;Min_cycle;Max_cycle;Signal;HPM_P1;HPM_P2
2022/12/05 00:01:20;;;;;;;14.52;6.85;;;;;;;0.28;100.00;101985.59;5001735;28;20042;-76
2022/12/05 00:03:47;;;;;;;14.73;5.95;;;;;;;1.30;100.00;102210.25;5006156;28;20161;-75
2022/12/05 00:06:12;;;;;;;13.02;6.40;;;;;;;0.63;100.00;102078.31;5000519;28;20050;-77
2022/12/05 00:08:38;;;;;;;10.52;6.32;;;;;;;0.67;100.00;102075.94;5006681;28;20163;-76
2022/12/05 00:11:03;;;;;;;10.85;5.75;;;;;;;1.32;100.00;102181.91;5005604;28;20052;-76
2022/12/05 00:13:29;;;;;;;10.60;5.97;;;;;;;1.65;100.00;102222.91;5004206;28;20041;-76
2022/12/05 00:15:54;;;;;;;13.52;7.28;;;;;;;1.55;100.00;102241.22;5005774;28;20042;-75
2022/12/05 00:18:20;;;;;;;13.55;7.93;;;;;;;0.94;100.00;102111.38;5005977;28;20793;-75
2022/12/05 00:20:47;;;;;;;10.30;5.38;;;;;;;0.76;100.00;102069.69;5003275;28;20485;-76
2022/12/05 00:23:13;;;;;;;7.80;5.57;;;;;;;1.62;100.00;102233.06;5003168;28;20121;-77
2022/12/05 00:25:39;;;;;;;11.60;5.93;;;;;;;1.05;100.00;102096.53;5003413;28;20153;-78
2022/12/05 00:28:05;;;;;;;11.75;7.63;;;;;;;1.99;100.00;102238.03;5010269;28;20152;-78
2022/12/05 00:30:30;;;;;;;8.82;6.70;;;;;;;0.92;100.00;102096.56;5008843;28;20125;-76
2022/12/05 00:32:56;;;;;;;19.88;7.22;;;;;;;1.27;100.00;102148.88;5008868;28;20109;-77
2022/12/05 00:35:22;;;;;;;9.38;5.90;;;;;;;1.93;100.00;102227.28;5007868;28;20174;-76
2022/12/05 00:37:48;;;;;;;10.45;7.18;;;;;;;0.38;100.00;102041.31;5004700;28;20513;-75
2022/12/05 00:40:13;;;;;;;14.43;6.60;;;;;;;0.73;100.00;102089.28;5009143;28;20041;-77
2022/12/05 00:42:39;;;;;;;11.02;7.28;;;;;;;0.77;100.00;102111.91;5008628;28;20074;-75
2022/12/05 00:45:05;;;;;;;13.25;9.55;;;;;;;0.58;100.00;102065.88;5007623;28;20748;-76
2022/12/05 00:47:35;;;;;;;13.60;8.57;;;;;;;1.56;100.00;102224.00;5007962;28;20038;-79
2022/12/05 00:50:00;;;;;;;12.25;8.52;;;;;;;1.34;100.00;102220.00;5014991;28;20428;-78
2022/12/05 00:52:26;;;;;;;12.70;8.50;;;;;;;0.67;100.00;102100.06;5007619;28;20073;-76
2022/12/05 00:54:51;;;;;;;14.95;9.10;;;;;;;1.27;100.00;102213.53;5008863;28;20069;-77
2022/12/05 00:57:17;;;;;;;13.90;9.15;;;;;;;0.39;100.00;102056.88;5008406;28;20069;-78
2022/12/05 00:59:42;;;;;;;18.95;9.85;;;;;;;1.17;100.00;102179.19;5008480;28;20029;-77
2022/12/05 01:02:08;;;;;;;15.65;10.20;;;;;;;0.62;100.00;102114.38;5005427;28;20144;-78
2022/12/05 01:04:33;;;;;;;18.35;9.27;;;;;;;0.60;100.00;102098.75;4996657;28;20049;-78
2022/12/05 01:06:59;;;;;;;11.80;7.53;;;;;;;1.36;100.00;102217.50;5006394;28;20049;-78
2022/12/05 01:09:25;;;;;;;18.13;12.60;;;;;;;0.96;100.00;102168.31;5003453;28;20045;-78
2022/12/05 01:11:51;;;;;;;23.55;10.18;;;;;;;0.30;100.00;102045.03;5007796;28;20588;-77
2022/12/05 01:14:19;;;;;;;18.02;9.75;;;;;;;0.87;100.00;102157.34;5007772;28;20037;-79
2022/12/05 01:16:46;;;;;;;18.60;11.13;;;;;;;1.14;100.00;102212.59;5012134;28;20053;-79
2022/12/05 01:19:18;;;;;;;19.75;11.30;;;;;;;0.32;100.00;102065.00;5011548;28;20129;-76
2022/12/05 01:21:43;;;;;;;19.40;9.52;;;;;;;1.02;100.00;102192.88;5006908;28;20050;-76
2022/12/05 01:24:10;;;;;;;16.58;9.95;;;;;;;1.08;100.00;102195.00;5015138;28;20045;-76
2022/12/05 01:26:36;;;;;;;19.35;12.77;;;;;;;0.81;100.00;102132.88;5008371;28;20478;-77
2022/12/05 01:29:02;;;;;;;14.00;7.97;;;;;;;1.15;100.00;102204.94;5008433;28;20049;-77
2022/12/05 01:31:31;;;;;;;13.65;9.38;;;;;;;0.30;100.00;102060.53;4999267;28;20806;-77
2022/12/05 01:33:58;;;;;;;13.80;8.85;;;;;;;0.97;100.00;102177.88;5006729;28;20038;-77
2022/12/05 01:36:25;;;;;;;16.65;9.68;;;;;;;-0.02;100.00;102031.75;5005993;28;20057;-76
2022/12/05 01:38:51;;;;;;;15.70;9.23;;;;;;;0.03;100.00;102015.69;5007688;28;20034;-76
2022/12/05 01:41:21;;;;;;;17.52;11.02;;;;;;;-0.03;100.00;102004.13;5003800;28;20555;-76
2022/12/05 01:43:58;;;;;;;15.13;10.57;;;;;;;0.99;100.00;102209.88;5007269;28;20065;-78
2022/12/05 01:46:25;;;;;;;13.98;8.30;;;;;;;-1.06;100.00;101881.00;5006076;28;20060;-77
2022/12/05 01:48:54;;;;;;;15.27;9.13;;;;;;;0.87;100.00;102191.84;5008006;28;20056;-77
2022/12/05 01:51:20;;;;;;;14.20;7.82;;;;;;;-0.94;100.00;101892.94;5006697;28;20128;-79
2022/12/05 01:53:45;;;;;;;15.30;7.68;;;;;;;0.73;100.00;102175.41;5007458;28;20091;-76
2022/12/05 01:56:12;;;;;;;12.57;7.97;;;;;;;0.75;100.00;102163.50;5007368;28;20070;-80
2022/12/05 01:58:40;;;;;;;16.50;8.50;;;;;;;0.81;100.00;102169.06;5005939;28;20056;-76
2022/12/05 02:01:06;;;;;;;15.32;9.38;;;;;;;1.00;100.00;102181.53;5003901;28;20416;-78
2022/12/05 02:03:32;;;;;;;11.40;7.38;;;;;;;0.70;100.00;102163.97;4997396;28;20069;-76
2022/12/05 02:05:58;;;;;;;12.10;8.30;;;;;;;-0.20;100.00;102011.53;5007015;28;20084;-77
2022/12/05 02:08:27;;;;;;;13.85;7.80;;;;;;;0.88;100.00;102191.06;5007593;28;20041;-76
2022/12/05 02:10:55;;;;;;;14.65;9.02;;;;;;;0.74;100.00;102209.88;5006993;28;20482;-76
2022/12/05 02:13:21;;;;;;;18.98;11.18;;;;;;;0.76;100.00;102190.22;5007393;28;20133;-75
2022/12/05 02:16:18;;;;;;;13.57;8.95;;;;;;;0.55;100.00;102164.72;5006381;28;20054;-77
2022/12/05 02:19:04;;;;;;;16.55;8.52;;;;;;;0.69;100.00;102201.81;4996590;28;20049;-75
2022/12/05 02:21:42;;;;;;;16.00;8.55;;;;;;;0.71;100.00;102189.03;5007100;28;20045;-75
2022/12/05 02:24:42;;;;;;;15.38;8.27;;;;;;;0.72;100.00;102190.81;5007351;28;20107;-76
2022/12/05 02:27:17;;;;;;;13.98;8.25;;;;;;;0.73;100.00;102190.03;4994966;28;20061;-75
2022/12/05 02:30:06;;;;;;;14.20;9.18;;;;;;;0.47;100.00;102173.63;4995559;28;20057;-76
2022/12/05 02:32:45;;;;;;;16.98;8.82;;;;;;;-0.31;100.00;102008.19;4998752;28;20058;-77
2022/12/05 02:35:32;;;;;;;17.85;8.05;;;;;;;0.62;100.00;102178.94;5004914;28;20061;-77
2022/12/05 02:38:30;;;;;;;15.57;8.50;;;;;;;0.23;100.00;102110.84;5009631;28;20061;-78
2022/12/05 02:41:26;;;;;;;15.13;9.05;;;;;;;0.68;100.00;102184.53;4995544;28;20091;-77
2022/12/05 02:44:00;;;;;;;18.13;9.43;;;;;;;0.63;100.00;102191.06;4995653;28;20498;-78
2022/12/05 02:46:28;;;;;;;13.38;8.73;;;;;;;0.22;100.00;102093.56;4996364;28;20041;-77
2022/12/05 02:48:59;;;;;;;17.27;9.40;;;;;;;0.07;100.00;102048.63;5000902;28;20864;-76
2022/12/05 02:51:30;;;;;;;17.55;11.82;;;;;;;-0.23;100.00;102018.25;5006784;28;20091;-77
2022/12/05 02:54:00;;;;;;;14.80;10.00;;;;;;;0.52;100.00;102189.44;5004957;28;20120;-77
2022/12/05 02:56:26;;;;;;;17.17;9.25;;;;;;;0.37;100.00;102148.81;5007346;28;20078;-78
2022/12/05 02:58:54;;;;;;;21.65;10.90;;;;;;;-0.39;100.00;102015.41;5004031;28;20141;-77
2022/12/05 03:01:26;;;;;;;16.40;10.55;;;;;;;0.31;100.00;102122.59;5003711;28;20049;-82
2022/12/05 03:03:53;;;;;;;23.02;11.80;;;;;;;0.60;100.00;102185.69;5003397;28;20433;-78
2022/12/05 03:06:32;;;;;;;19.80;10.38;;;;;;;0.24;100.00;102141.03;5004038;28;20042;-77
2022/12/05 03:09:07;;;;;;;14.43;9.77;;;;;;;0.47;100.00;102145.22;5006449;28;20100;-77
2022/12/05 03:11:44;;;;;;;15.50;9.15;;;;;;;-0.11;100.00;102031.09;5006724;28;20409;-79
2022/12/05 03:14:16;;;;;;;16.70;11.02;;;;;;;0.59;100.00;102192.53;5002637;28;20531;-80
2022/12/05 03:16:49;;;;;;;15.73;9.88;;;;;;;0.53;100.00;102191.22;5001082;28;20054;-79
2022/12/05 03:19:22;;;;;;;17.58;11.13;;;;;;;-0.13;100.00;102057.59;5001497;28;20049;-79
2022/12/05 03:21:58;;;;;;;19.23;12.65;;;;;;;0.60;100.00;102160.75;5001834;28;20053;-80
2022/12/05 03:24:24;;;;;;;16.45;12.13;;;;;;;0.22;100.00;102129.72;4996825;28;20049;-78
2022/12/05 03:27:22;;;;;;;20.20;12.63;;;;;;;0.57;100.00;102196.72;5003403;28;20540;-78
2022/12/05 03:30:04;;;;;;;19.92;10.93;;;;;;;0.46;100.00;102186.41;5000730;28;20490;-79
2022/12/05 03:32:54;;;;;;;20.25;10.73;;;;;;;0.46;100.00;102191.59;5004907;28;20646;-78
2022/12/05 03:35:32;;;;;;;19.42;10.35;;;;;;;0.07;100.00;102119.22;5003319;28;20064;-79
2022/12/05 03:38:06;;;;;;;20.90;10.23;;;;;;;0.35;100.00;102158.19;5005964;28;20042;-78
2022/12/05 03:40:53;;;;;;;17.35;10.25;;;;;;;0.54;100.00;102206.84;5004214;28;20042;-78
2022/12/05 03:43:34;;;;;;;22.13;11.55;;;;;;;-0.85;100.00;101945.13;5004523;28;20134;-78
2022/12/05 03:46:06;;;;;;;17.75;9.15;;;;;;;0.40;100.00;102151.66;5000894;28;20184;-76
2022/12/05 03:48:58;;;;;;;19.50;11.38;;;;;;;0.48;100.00;102192.59;5000893;28;20053;-76
2022/12/05 03:52:03;;;;;;;19.08;11.82;;;;;;;0.53;100.00;102186.94;5005807;28;20045;-76
2022/12/05 03:54:37;;;;;;;16.73;10.95;;;;;;;0.49;100.00;102189.22;4972743;28;20038;-76
2022/12/05 03:57:19;;;;;;;16.92;10.32;;;;;;;0.34;100.00;102155.47;5005852;28;20057;-76
2022/12/05 04:00:03;;;;;;;23.17;13.60;;;;;;;0.08;100.00;102113.25;5006559;28;20139;-75
2022/12/05 04:02:48;;;;;;;18.65;12.30;;;;;;;0.51;100.00;102146.31;5008675;28;20033;-75
2022/12/05 04:05:25;;;;;;;23.13;10.48;;;;;;;0.14;100.00;102081.81;5006474;28;20128;-76
2022/12/05 04:08:07;;;;;;;20.33;11.60;;;;;;;0.29;100.00;102143.94;5011355;28;20042;-77
2022/12/05 04:10:47;;;;;;;21.38;12.02;;;;;;;-0.15;100.00;102017.88;5009903;28;20703;-78
2022/12/05 04:13:17;;;;;;;20.50;13.15;;;;;;;0.62;100.00;102174.66;5006163;28;20561;-75
2022/12/05 04:18:46;;;;;;;19.58;12.48;;;;;;;0.54;100.00;102164.59;5007741;28;20052;-79
2022/12/05 04:27:26;;;;;;;16.38;10.13;;;;;;;0.38;100.00;102179.03;5003811;28;20448;-79
2022/12/05 04:30:06;;;;;;;19.20;10.15;;;;;;;0.48;100.00;102166.78;4991489;28;20038;-76
2022/12/05 04:32:49;;;;;;;14.40;9.57;;;;;;;0.40;100.00;102172.31;5000915;28;20076;-78
2022/12/05 04:35:22;;;;;;;15.50;10.18;;;;;;;0.40;100.00;102171.41;5001292;28;20493;-78
2022/12/05 04:37:51;;;;;;;19.48;11.48;;;;;;;-0.46;100.00;102029.53;4997339;28;20058;-77
2022/12/05 04:40:33;;;;;;;22.75;12.27;;;;;;;0.35;100.00;102165.94;5005466;28;20504;-79
2022/12/05 04:43:01;;;;;;;16.38;9.77;;;;;;;-0.47;100.00;102026.84;5008846;28;20050;-79
2022/12/05 04:45:28;;;;;;;17.48;10.75;;;;;;;0.45;100.00;102184.66;5001444;28;20057;-77
2022/12/05 04:47:58;;;;;;;16.77;9.25;;;;;;;0.44;100.00;102142.41;5006396;28;20034;-79
2022/12/05 04:50:27;;;;;;;16.90;8.68;;;;;;;0.46;100.00;102181.25;5008093;28;20108;-80
2022/12/05 04:52:56;;;;;;;15.38;9.98;;;;;;;0.28;100.00;102148.22;5003371;28;20050;-77
2022/12/05 04:55:28;;;;;;;17.65;10.35;;;;;;;0.37;100.00;102161.75;5006711;28;20046;-76
2022/12/05 04:58:15;;;;;;;16.02;9.90;;;;;;;0.18;100.00;102123.44;5006336;28;20065;-75
2022/12/05 05:00:53;;;;;;;14.13;8.48;;;;;;;0.39;100.00;102157.56;4999484;28;20047;-75
2022/12/05 05:03:30;;;;;;;13.70;8.93;;;;;;;0.43;100.00;102156.13;5007248;28;20085;-78
2022/12/05 05:05:56;;;;;;;17.42;11.02;;;;;;;0.43;100.00;102121.66;5008035;28;20034;-78
2022/12/05 05:08:26;;;;;;;17.70;8.98;;;;;;;0.52;100.00;102150.72;5004903;28;20033;-79
2022/12/05 05:11:03;;;;;;;17.27;10.30;;;;;;;-0.11;100.00;102074.97;5008581;28;20087;-77
2022/12/05 05:13:28;;;;;;;24.23;14.13;;;;;;;0.20;100.00;102144.19;5005004;28;20045;-77
2022/12/05 05:15:54;;;;;;;24.55;15.77;;;;;;;-0.63;100.00;102001.69;5005935;28;20060;-78
2022/12/05 05:18:19;;;;;;;22.27;15.57;;;;;;;0.12;100.00;102132.47;5006822;28;20038;-77
2022/12/05 05:20:44;;;;;;;22.63;17.25;;;;;;;0.18;100.00;102166.41;5007840;28;20549;-76
2022/12/05 05:23:10;;;;;;;25.70;14.30;;;;;;;0.41;100.00;102175.78;5008152;28;20048;-77
2022/12/05 05:25:35;;;;;;;20.52;12.50;;;;;;;0.03;100.00;102124.97;5006531;28;20034;-76
2022/12/05 05:28:01;;;;;;;20.55;13.90;;;;;;;0.33;100.00;102192.44;5008076;28;20042;-77
2022/12/05 05:30:26;;;;;;;17.92;8.73;;;;;;;-0.60;100.00;102021.63;5007355;28;20045;-76
2022/12/05 05:32:52;;;;;;;23.27;11.23;;;;;;;0.26;100.00;102174.69;5005194;28;20038;-76
2022/12/05 05:35:19;;;;;;;20.50;10.38;;;;;;;-0.36;100.00;102027.59;5007822;28;20429;-77
2022/12/05 05:37:44;;;;;;;16.38;10.63;;;;;;;-0.53;100.00;102023.84;5007983;28;20108;-78
2022/12/05 05:40:12;;;;;;;16.17;9.55;;;;;;;0.37;100.00;102182.41;5007626;28;20061;-76
2022/12/05 05:42:45;;;;;;;15.15;10.32;;;;;;;0.34;100.00;102163.22;5007602;28;20057;-78
2022/12/05 05:45:12;;;;;;;17.33;10.88;;;;;;;-0.52;100.00;102023.94;5005486;28;20184;-76
2022/12/05 05:47:38;;;;;;;17.95;10.52;;;;;;;0.37;100.00;102137.63;5004402;28;20046;-78
2022/12/05 05:50:05;;;;;;;17.33;9.70;;;;;;;-0.46;100.00;102033.81;5003694;28;20120;-76
2022/12/05 05:52:35;;;;;;;16.25;8.55;;;;;;;-0.47;100.00;102052.63;5006359;28;20042;-81
2022/12/05 05:55:02;;;;;;;16.65;9.90;;;;;;;0.55;100.00;102172.47;5004597;28;20062;-80
2022/12/05 05:57:29;;;;;;;40.03;10.80;;;;;;;-0.27;100.00;102030.81;5005393;28;20401;-79
2022/12/05 05:59:54;;;;;;;21.92;11.55;;;;;;;-0.19;100.00;102070.94;5007148;28;20037;-76
2022/12/05 06:02:19;;;;;;;13.48;8.68;;;;;;;-0.23;100.00;102063.78;5002196;28;20037;-77
2022/12/05 06:04:46;;;;;;;17.88;9.93;;;;;;;-0.10;100.00;102120.59;5005686;28;20136;-76
2022/12/05 06:07:11;;;;;;;15.27;9.90;;;;;;;0.25;100.00;102178.97;5005156;28;20060;-77
2022/12/05 06:09:37;;;;;;;15.10;9.40;;;;;;;0.19;100.00;102168.22;5006308;28;20056;-75
2022/12/05 06:12:03;;;;;;;24.38;10.00;;;;;;;-0.13;100.00;102115.22;5006938;28;20034;-78
2022/12/05 06:14:28;;;;;;;32.53;13.13;;;;;;;0.18;100.00;102166.41;5006152;28;20026;-78
2022/12/05 06:16:57;;;;;;;18.00;10.00;;;;;;;-0.44;100.00;102052.88;5005361;28;20041;-75
2022/12/05 06:19:22;;;;;;;46.85;12.98;;;;;;;-0.57;100.00;102040.75;5006888;28;20510;-75
2022/12/05 06:21:49;;;;;;;19.20;12.07;;;;;;;-0.67;100.00;102028.91;5006491;28;20140;-77
2022/12/05 06:24:15;;;;;;;22.60;12.68;;;;;;;-0.49;100.00;102061.97;5005077;28;20188;-75
2022/12/05 06:26:42;;;;;;;20.27;10.00;;;;;;;-0.58;100.00;102061.31;5007300;28;20113;-77
2022/12/05 06:29:07;;;;;;;18.10;9.27;;;;;;;0.35;100.00;102194.34;5006746;28;20049;-78
2022/12/05 06:31:33;;;;;;;14.18;9.25;;;;;;;-0.09;100.00;102160.22;4999296;28;20037;-77
2022/12/05 06:34:01;;;;;;;20.38;11.50;;;;;;;-0.45;100.00;102072.56;4989633;28;20404;-77
2022/12/05 06:36:28;;;;;;;14.63;10.50;;;;;;;-0.56;100.00;102058.03;4991686;28;20069;-78
2022/12/05 06:38:55;;;;;;;15.30;9.38;;;;;;;0.24;100.00;102203.00;4998899;28;20042;-76
2022/12/05 06:41:23;;;;;;;17.52;9.50;;;;;;;0.22;100.00;102193.34;4997512;28;20030;-78
2022/12/05 06:43:52;;;;;;;26.08;8.93;;;;;;;0.00;100.00;102127.34;5003451;28;20497;-79
2022/12/05 06:46:17;;;;;;;15.15;8.88;;;;;;;-0.45;100.00;102049.38;4998304;28;20118;-80
2022/12/05 06:48:43;;;;;;;19.50;12.50;;;;;;;-0.55;100.00;102035.72;5003819;28;20549;-79
2022/12/05 06:51:11;;;;;;;16.15;11.38;;;;;;;-0.59;100.00;102029.44;4996791;28;20054;-78
2022/12/05 06:53:37;;;;;;;15.95;9.20;;;;;;;0.18;100.00;102148.34;4996840;28;20552;-76
2022/12/05 06:56:06;;;;;;;14.35;9.30;;;;;;;-0.26;100.00;102040.34;5001744;28;20069;-77
2022/12/05 06:58:31;;;;;;;30.88;10.52;;;;;;;-0.34;100.00;102019.19;5002639;28;20447;-78
2022/12/05 07:03:46;;;;;;;22.73;10.15;;;;;;;0.44;100.00;102204.38;4995014;28;20556;-80
2022/12/05 07:06:11;;;;;;;20.40;11.23;;;;;;;-0.23;100.00;102063.78;4993936;28;20150;-76
2022/12/05 07:08:37;;;;;;;17.63;9.68;;;;;;;-0.45;100.00;102013.25;4997578;28;20045;-78
2022/12/05 07:11:03;;;;;;;22.77;10.63;;;;;;;0.35;100.00;102163.34;5002397;28;20050;-77
2022/12/05 07:13:30;;;;;;;15.27;10.82;;;;;;;0.26;100.00;102136.88;5001771;28;20084;-81
2022/12/05 07:15:57;;;;;;;17.88;10.48;;;;;;;0.22;100.00;102165.84;5003830;28;20073;-76
2022/12/05 07:18:23;;;;;;;18.70;10.68;;;;;;;0.59;100.00;102202.88;4993662;28;20050;-75
2022/12/05 07:21:03;;;;;;;21.02;10.70;;;;;;;-0.13;100.00;102060.16;5006346;28;20053;-75
2022/12/05 07:23:29;;;;;;;21.23;9.65;;;;;;;-0.35;100.00;102024.22;5002848;28;20081;-78
2022/12/05 07:25:56;;;;;;;16.17;9.32;;;;;;;0.01;100.00;102072.34;4997099;28;20362;-80
2022/12/05 07:28:22;;;;;;;17.10;10.23;;;;;;;0.84;100.00;102215.81;4999635;28;20141;-77
2022/12/05 07:30:47;;;;;;;40.00;11.50;;;;;;;0.67;100.00;102208.56;5003408;28;20058;-77
2022/12/05 07:33:13;;;;;;;17.48;10.43;;;;;;;0.75;100.00;102175.50;5002855;28;20050;-79
2022/12/05 07:35:38;;;;;;;18.02;10.85;;;;;;;-0.05;100.00;102064.16;5009082;28;20478;-77
2022/12/05 07:38:04;;;;;;;19.17;10.63;;;;;;;0.97;100.00;102224.38;5010093;28;20037;-79
2022/12/05 07:40:29;;;;;;;19.20;8.05;;;;;;;0.83;100.00;102188.16;5007060;28;20133;-79
2022/12/05 07:42:55;;;;;;;19.48;10.55;;;;;;;0.84;100.00;102218.38;5005774;28;20613;-78
2022/12/05 07:45:20;;;;;;;17.05;10.07;;;;;;;1.11;100.00;102223.63;5001540;28;20386;-74
2022/12/05 07:47:46;;;;;;;23.42;11.90;;;;;;;0.50;100.00;102124.75;4999109;28;20081;-77
2022/12/05 07:50:12;;;;;;;18.52;12.57;;;;;;;0.07;100.00;102074.44;5001136;28;20065;-81
2022/12/05 07:52:38;;;;;;;19.67;11.07;;;;;;;1.06;100.00;102227.59;4998534;28;20513;-80
2022/12/05 07:55:04;;;;;;;21.42;11.35;;;;;;;-0.05;100.00;102041.88;4994420;28;20058;-78
2022/12/05 07:57:30;;;;;;;15.32;10.32;;;;;;;0.32;100.00;102101.16;4994247;28;20085;-77
2022/12/05 07:59:55;;;;;;;14.27;9.68;;;;;;;0.38;100.00;102075.75;4998128;28;20401;-76
2022/12/05 08:02:21;;;;;;;21.88;11.02;;;;;;;0.57;100.00;102069.25;5000648;28;20045;-76
2022/12/05 08:04:47;;;;;;;21.33;11.27;;;;;;;1.16;100.00;102234.28;4998911;28;20054;-76
2022/12/05 08:07:14;;;;;;;21.30;11.75;;;;;;;1.31;100.00;102231.81;4998757;28;20058;-76
2022/12/05 08:09:39;;;;;;;21.63;11.70;;;;;;;0.63;100.00;102098.06;5003576;28;20069;-76
2022/12/05 08:12:05;;;;;;;26.20;13.20;;;;;;;1.61;100.00;102212.25;5003522;28;20053;-75
2022/12/05 08:14:31;;;;;;;22.35;12.57;;;;;;;0.63;100.00;102105.81;4999863;28;20072;-76
2022/12/05 08:16:56;;;;;;;15.05;9.02;;;;;;;1.10;100.00;102213.16;5002636;28;20528;-77
2022/12/05 08:19:22;;;;;;;16.98;10.95;;;;;;;1.29;100.00;102217.88;5004710;28;20953;-76
2022/12/05 08:21:50;;;;;;;18.73;10.35;;;;;;;0.87;100.00;102109.16;5004169;28;20057;-76
2022/12/05 08:24:15;;;;;;;21.35;14.15;;;;;;;1.52;100.00;102217.72;4994006;28;20049;-75
2022/12/05 08:26:40;;;;;;;22.48;9.38;;;;;;;1.34;100.00;102185.50;4995218;28;20049;-79
2022/12/05 08:29:12;;;;;;;20.13;14.23;;;;;;;0.81;100.00;102119.97;4996579;28;20042;-76
2022/12/05 08:31:47;;;;;;;16.20;11.18;;;;;;;0.65;100.00;102049.09;5000433;28;20310;-75
2022/12/05 08:34:13;;;;;;;20.65;14.63;;;;;;;1.23;100.00;102182.19;5002293;28;20049;-76
2022/12/05 08:36:40;;;;;;;19.30;12.32;;;;;;;1.35;100.00;102214.03;5002417;28;20148;-76
2022/12/05 08:39:08;;;;;;;17.85;10.80;;;;;;;1.18;100.00;102168.06;5002507;28;20157;-76
2022/12/05 08:41:34;;;;;;;18.90;11.10;;;;;;;0.95;100.00;102066.63;5003063;28;20187;-76
2022/12/05 08:44:04;;;;;;;21.58;12.70;;;;;;;0.71;100.00;102072.78;5005807;28;20073;-77
2022/12/05 08:46:30;;;;;;;17.58;10.40;;;;;;;1.69;100.00;102231.78;4997222;28;20075;-77
2022/12/05 08:48:56;;;;;;;19.60;12.15;;;;;;;1.48;100.00;102214.03;5005065;28;20056;-77
2022/12/05 08:51:21;;;;;;;15.65;9.80;;;;;;;1.14;100.00;102187.63;4995710;28;20054;-77
2022/12/05 08:53:47;;;;;;;12.80;9.55;;;;;;;1.20;100.00;102188.06;5000974;28;20458;-76
2022/12/05 08:56:13;;;;;;;14.13;9.18;;;;;;;1.32;100.00;102181.91;5002311;28;20056;-75
2022/12/05 08:58:39;;;;;;;14.20;8.35;;;;;;;0.61;100.00;102046.31;4999599;28;20050;-77
2022/12/05 09:01:10;;;;;;;17.30;9.15;;;;;;;1.61;100.00;102194.16;4997681;28;20050;-77
2022/12/05 09:03:40;;;;;;;20.80;10.88;;;;;;;1.33;100.00;102158.72;5005625;28;20042;-76
2022/12/05 09:06:16;;;;;;;17.77;9.13;;;;;;;1.54;100.00;102197.13;5001991;28;20050;-77
2022/12/05 09:08:42;;;;;;;16.45;10.02;;;;;;;1.39;100.00;102150.47;5001187;28;20056;-76
2022/12/05 09:11:12;;;;;;;17.83;12.70;;;;;;;1.57;100.00;102174.97;5000378;28;20057;-76
2022/12/05 09:13:38;;;;;;;21.77;14.57;;;;;;;1.66;100.00;102159.09;5004253;28;20108;-76
2022/12/05 09:16:06;;;;;;;18.25;12.93;;;;;;;1.80;100.00;102173.84;5001772;28;20069;-76
2022/12/05 09:18:31;;;;;;;23.17;12.00;;;;;;;1.31;100.00;102075.00;5002991;28;20200;-77
2022/12/05 09:20:57;;;;;;;22.17;12.40;;;;;;;2.00;100.00;102158.69;5003768;28;20544;-74
2022/12/05 09:23:22;;;;;;;21.73;12.82;;;;;;;1.30;100.00;102034.41;5006684;28;20042;-75
2022/12/05 09:25:56;;;;;;;18.80;11.77;;;;;;;1.83;100.00;102155.03;5001341;28;20108;-76
2022/12/05 09:28:22;;;;;;;17.88;10.27;;;;;;;1.78;100.00;102125.34;5001737;28;20053;-76
2022/12/05 09:31:02;;;;;;;17.48;10.05;;;;;;;1.58;100.00;102118.94;5000056;28;20046;-75
2022/12/05 09:33:29;;;;;;;24.83;12.98;;;;;;;0.98;100.00;102011.66;5000410;28;20046;-73
2022/12/05 09:35:55;;;;;;;19.58;10.75;;;;;;;1.11;100.00;101990.09;5004792;28;20037;-75
2022/12/05 09:38:21;;;;;;;17.10;9.57;;;;;;;1.92;100.00;102158.22;5000023;28;20030;-76
2022/12/05 09:40:59;;;;;;;70.65;33.55;;;;;;;2.03;100.00;102066.56;4998199;28;20149;-73
2022/12/05 09:43:46;;;;;;;88.35;47.08;;;;;;;1.89;100.00;101989.75;4999601;28;20486;-71
2022/12/05 09:46:30;;;;;;;50.30;30.17;;;;;;;2.46;100.00;102133.03;5004245;28;20050;-72
2022/12/05 09:48:56;;;;;;;52.97;25.30;;;;;;;2.69;100.00;102080.91;5001196;28;20180;-70
2022/12/05 09:51:22;;;;;;;35.58;23.40;;;;;;;2.10;100.00;101990.16;5001144;28;20054;-73
2022/12/05 09:53:48;;;;;;;34.28;17.13;;;;;;;1.47;100.00;101958.78;5002375;28;20133;-72
2022/12/05 09:56:29;;;;;;;60.58;29.25;;;;;;;1.93;100.00;101981.38;5000315;28;20038;-72
2022/12/05 09:58:56;;;;;;;32.65;19.15;;;;;;;2.65;100.00;101976.97;5000283;28;20042;-71
2022/12/05 10:01:54;;;;;;;43.45;23.83;;;;;;;3.20;100.00;102063.06;5003318;28;20052;-74
2022/12/05 10:04:57;;;;;;;66.13;32.03;;;;;;;2.58;100.00;102102.69;4977084;28;20084;-72
2022/12/05 10:07:32;;;;;;;24.20;14.95;;;;;;;3.01;100.00;102096.53;4999355;28;20064;-73
2022/12/05 10:10:26;;;;;;;38.22;19.80;;;;;;;2.63;100.00;102087.41;4998925;28;20093;-73
2022/12/05 10:13:20;;;;;;;26.25;17.15;;;;;;;3.10;100.00;102084.09;4998158;28;20073;-73
2022/12/05 10:15:53;;;;;;;19.58;13.02;;;;;;;2.41;100.00;102096.50;5000994;28;20532;-73
2022/12/05 10:18:53;;;;;;;22.13;13.88;;;;;;;2.82;100.00;102094.56;5005489;28;20050;-72
2022/12/05 10:21:30;;;;;;;119.32;53.58;;;;;;;4.86;100.00;101993.84;5000147;28;20045;-72
2022/12/05 10:24:02;;;;;;;26.90;16.27;;;;;;;4.71;100.00;102076.31;5001785;28;20041;-73
2022/12/05 10:27:07;;;;;;;30.98;16.02;;;;;;;3.14;100.00;102076.56;5004748;28;20477;-72
2022/12/05 10:30:16;;;;;;;22.60;13.20;;;;;;;3.71;100.00;102074.53;4963402;28;20068;-73
2022/12/05 10:33:01;;;;;;;22.35;12.20;;;;;;;2.51;100.00;102064.25;4961445;28;20050;-74
2022/12/05 10:35:38;;;;;;;18.90;10.98;;;;;;;2.42;100.00;102051.66;4962890;28;20074;-73
2022/12/05 10:38:10;;;;;;;19.23;11.82;;;;;;;2.69;100.00;102049.78;4987896;28;20513;-73
2022/12/05 10:40:39;;;;;;;21.60;12.90;;;;;;;2.57;100.00;102050.75;5001112;28;20517;-73
2022/12/05 10:43:07;;;;;;;20.75;12.02;;;;;;;2.46;100.00;102047.56;5004650;28;20533;-74
2022/12/05 10:45:38;;;;;;;21.58;13.13;;;;;;;2.12;100.00;101923.81;4990449;28;20057;-74
2022/12/05 10:48:04;;;;;;;21.38;13.10;;;;;;;3.00;100.00;102036.00;5002297;28;20038;-74
2022/12/05 10:50:35;;;;;;;37.10;14.80;;;;;;;2.24;100.00;101921.94;5002560;28;20075;-73
2022/12/05 10:53:02;;;;;;;27.77;15.02;;;;;;;2.72;100.00;102034.41;4999230;28;20061;-73
2022/12/05 10:55:43;;;;;;;22.42;13.20;;;;;;;2.13;100.00;101946.34;5004676;28;20053;-73
2022/12/05 10:58:16;;;;;;;15.90;11.10;;;;;;;2.96;100.00;102047.88;5003730;28;20100;-74
2022/12/05 11:00:45;;;;;;;32.25;16.45;;;;;;;2.75;100.00;101933.50;5004566;28;20042;-73
2022/12/05 11:03:23;;;;;;;23.27;17.15;;;;;;;2.97;100.00;102053.94;5001498;28;20046;-73
2022/12/05 11:05:49;;;;;;;19.98;13.05;;;;;;;2.91;100.00;102048.44;5002692;28;20034;-74
2022/12/05 11:08:30;;;;;;;27.83;16.73;;;;;;;2.59;100.00;102024.13;5006413;28;20549;-74
2022/12/05 11:11:06;;;;;;;20.38;12.77;;;;;;;3.06;100.00;102046.69;5002175;28;20057;-73
2022/12/05 11:13:33;;;;;;;22.08;13.60;;;;;;;3.07;100.00;102039.84;5004001;28;20489;-74
2022/12/05 11:16:00;;;;;;;22.50;16.00;;;;;;;2.74;100.00;102030.22;4993626;28;20050;-74
2022/12/05 11:18:33;;;;;;;21.85;15.23;;;;;;;2.85;100.00;102045.47;5000693;28;20052;-75
2022/12/05 11:21:18;;;;;;;29.23;13.50;;;;;;;1.86;100.00;101889.53;4998230;28;20041;-75
2022/12/05 11:23:44;;;;;;;22.20;13.45;;;;;;;2.66;100.00;102035.75;4997242;28;20577;-72
2022/12/05 11:26:34;;;;;;;25.02;13.15;;;;;;;2.70;100.00;102033.44;4996770;28;20376;-72
2022/12/05 11:29:00;;;;;;;20.70;13.48;;;;;;;2.19;100.00;101925.97;5001727;28;20100;-75
2022/12/05 11:31:28;;;;;;;27.30;17.70;;;;;;;2.64;100.00;102009.75;5002114;28;20469;-74
2022/12/05 11:34:15;;;;;;;24.08;16.40;;;;;;;1.84;100.00;101883.38;4999838;28;20056;-79
2022/12/05 11:36:49;;;;;;;25.55;20.77;;;;;;;2.61;100.00;102024.22;4997615;28;20490;-75
2022/12/05 11:39:15;;;;;;;22.30;14.07;;;;;;;1.45;100.00;101824.97;4998958;28;20060;-77
2022/12/05 11:41:53;;;;;;;17.23;11.60;;;;;;;2.58;100.00;102024.06;5000868;28;20704;-74